sensor_id;sensor_type;location;lat;lon;timestamp;P1;durP1;ratioP1;P2;durP2;ratioP2
46757;SDS011;32509;47.750;-3.396;2022-10-17T08:57:43;16.80;;;5.28;;
46757;SDS011;32509;47.750;-3.396;2022-10-17T09:00:12;11.75;;;5.18;;
46757;SDS011;32509;47.750;-3.396;2022-10-17T09:02:49;7.55;;;3.17;;
46757;SDS011;32509;47.750;-3.396;2022-10-17T09:05:26;10.25;;;4.28;;
46757;SDS011;32509;47.750;-3.396;2022-10-17T09:10:25;7.35;;;2.90;;
46757;SDS011;32509;47.750;-3.396;2022-10-17T09:15:47;12.77;;;3.28;;
46757;SDS011;32509;47.750;-3.396;2022-10-17T09:18:16;8.98;;;2.28;;
46757;SDS011;32509;47.750;-3.396;2022-10-17T09:20:44;5.55;;;2.00;;
46757;SDS011;32509;47.750;-3.396;2022-10-17T09:23:14;6.32;;;2.20;;
46757;SDS011;32509;47.750;-3.396;2022-10-17T09:25:44;4.75;;;1.55;;
46757;SDS011;32509;47.750;-3.396;2022-10-17T09:28:13;7.55;;;2.15;;
46757;SDS011;32509;47.750;-3.396;2022-10-17T09:33:10;4.55;;;1.40;;
46757;SDS011;32509;47.750;-3.396;2022-10-17T09:35:37;8.05;;;2.25;;
46757;SDS011;32509;47.750;-3.396;2022-10-17T09:38:03;6.47;;;1.50;;
46757;SDS011;32509;47.750;-3.396;2022-10-17T09:40:33;4.00;;;1.20;;
46757;SDS011;32509;47.750;-3.396;2022-10-17T09:43:04;5.07;;;1.40;;
46757;SDS011;32509;47.750;-3.396;2022-10-17T09:45:31;3.55;;;1.20;;
46757;SDS011;32509;47.750;-3.396;2022-10-17T09:50:31;5.40;;;1.40;;
46757;SDS011;32509;47.750;-3.396;2022-10-17T09:56:00;5.13;;;1.60;;
46757;SDS011;32509;47.750;-3.396;2022-10-17T09:58:39;7.25;;;2.13;;
46757;SDS011;32509;47.750;-3.396;2022-10-17T10:04:08;6.38;;;1.67;;
46757;SDS011;32509;47.750;-3.396;2022-10-17T10:06:35;9.13;;;2.58;;
46757;SDS011;32509;47.750;-3.396;2022-10-17T10:09:01;2.80;;;1.15;;
46757;SDS011;32509;47.750;-3.396;2022-10-17T10:14:34;4.38;;;1.80;;
46757;SDS011;32509;47.750;-3.396;2022-10-17T10:17:02;4.45;;;1.20;;
46757;SDS011;32509;47.750;-3.396;2022-10-17T10:19:30;3.72;;;1.52;;
46757;SDS011;32509;47.750;-3.396;2022-10-17T10:21:57;46.67;;;2.08;;
46757;SDS011;32509;47.750;-3.396;2022-10-17T10:24:24;7.63;;;1.75;;
46757;SDS011;32509;47.750;-3.396;2022-10-17T10:26:51;4.45;;;1.25;;
46757;SDS011;32509;47.750;-3.396;2022-10-17T10:29:31;6.28;;;1.60;;
46757;SDS011;32509;47.750;-3.396;2022-10-17T10:32:11;5.80;;;1.42;;
46757;SDS011;32509;47.750;-3.396;2022-10-17T10:34:54;5.53;;;1.48;;
46757;SDS011;32509;47.750;-3.396;2022-10-17T10:37:42;6.40;;;1.65;;
46757;SDS011;32509;47.750;-3.396;2022-10-17T10:42:45;4.88;;;1.38;;
46757;SDS011;32509;47.750;-3.396;2022-10-17T10:45:22;9.85;;;2.10;;
46757;SDS011;32509;47.750;-3.396;2022-10-17T10:47:58;2.20;;;0.95;;
46757;SDS011;32509;47.750;-3.396;2022-10-17T10:55:39;3.20;;;1.10;;
46757;SDS011;32509;47.750;-3.396;2022-10-17T10:58:13;3.38;;;1.02;;
46757;SDS011;32509;47.750;-3.396;2022-10-17T11:00:41;5.68;;;1.10;;
46757;SDS011;32509;47.750;-3.396;2022-10-17T11:03:41;3.97;;;1.33;;
46757;SDS011;32509;47.750;-3.396;2022-10-17T11:06:15;2.03;;;0.98;;
46757;SDS011;32509;47.750;-3.396;2022-10-17T11:13:46;3.17;;;1.00;;
46757;SDS011;32509;47.750;-3.396;2022-10-17T11:16:22;2.67;;;1.05;;
46757;SDS011;32509;47.750;-3.396;2022-10-17T11:18:51;4.13;;;1.38;;
46757;SDS011;32509;47.750;-3.396;2022-10-17T11:21:23;5.28;;;1.70;;
46757;SDS011;32509;47.750;-3.396;2022-10-17T11:26:20;1.70;;;1.00;;
46757;SDS011;32509;47.750;-3.396;2022-10-17T11:28:54;7.10;;;1.00;;
46757;SDS011;32509;47.750;-3.396;2022-10-17T11:31:22;3.53;;;1.10;;
46757;SDS011;32509;47.750;-3.396;2022-10-17T11:36:24;5.33;;;1.43;;
46757;SDS011;32509;47.750;-3.396;2022-10-17T11:38:53;2.42;;;0.80;;
46757;SDS011;32509;47.750;-3.396;2022-10-17T11:41:30;1.45;;;1.00;;
46757;SDS011;32509;47.750;-3.396;2022-10-17T11:44:04;4.47;;;1.25;;
46757;SDS011;32509;47.750;-3.396;2022-10-17T11:46:31;3.85;;;1.10;;
46757;SDS011;32509;47.750;-3.396;2022-10-17T11:51:26;3.38;;;1.00;;
46757;SDS011;32509;47.750;-3.396;2022-10-17T11:54:11;1.83;;;0.82;;
46757;SDS011;32509;47.750;-3.396;2022-10-17T11:56:41;1.88;;;0.98;;
46757;SDS011;32509;47.750;-3.396;2022-10-17T12:01:51;3.03;;;0.88;;
46757;SDS011;32509;47.750;-3.396;2022-10-17T12:04:39;2.00;;;0.98;;
46757;SDS011;32509;47.750;-3.396;2022-10-17T12:12:06;3.28;;;0.82;;
46757;SDS011;32509;47.750;-3.396;2022-10-17T12:14:33;2.05;;;0.75;;
46757;SDS011;32509;47.750;-3.396;2022-10-17T12:17:00;4.07;;;1.20;;
46757;SDS011;32509;47.750;-3.396;2022-10-17T12:19:27;3.50;;;1.02;;
46757;SDS011;32509;47.750;-3.396;2022-10-17T12:24:39;4.18;;;1.20;;
46757;SDS011;32509;47.750;-3.396;2022-10-17T12:27:22;1.42;;;0.90;;
46757;SDS011;32509;47.750;-3.396;2022-10-17T12:29:48;3.03;;;1.10;;
46757;SDS011;32509;47.750;-3.396;2022-10-17T12:32:15;2.67;;;1.10;;
46757;SDS011;32509;47.750;-3.396;2022-10-17T12:34:53;2.35;;;0.98;;
46757;SDS011;32509;47.750;-3.396;2022-10-17T12:42:50;1.30;;;0.68;;
46757;SDS011;32509;47.750;-3.396;2022-10-17T12:45:50;2.90;;;0.73;;
46757;SDS011;32509;47.750;-3.396;2022-10-17T12:53:21;2.63;;;1.13;;
46757;SDS011;32509;47.750;-3.396;2022-10-17T12:55:48;2.28;;;0.85;;
46757;SDS011;32509;47.750;-3.396;2022-10-17T12:58:15;2.25;;;0.90;;
46757;SDS011;32509;47.750;-3.396;2022-10-17T13:00:52;2.72;;;0.88;;
46757;SDS011;32509;47.750;-3.396;2022-10-17T13:05:53;8.00;;;1.65;;
46757;SDS011;32509;47.750;-3.396;2022-10-17T13:09:25;2.83;;;0.82;;
46757;SDS011;32509;47.750;-3.396;2022-10-17T13:11:14;2.22;;;0.82;;
46757;SDS011;32509;47.750;-3.396;2022-10-17T13:13:45;1.75;;;0.93;;
46757;SDS011;32509;47.750;-3.396;2022-10-17T13:16:32;2.03;;;1.08;;
46757;SDS011;32509;47.750;-3.396;2022-10-17T13:18:59;2.42;;;1.10;;
46757;SDS011;32509;47.750;-3.396;2022-10-17T13:21:26;3.80;;;1.17;;
46757;SDS011;32509;47.750;-3.396;2022-10-17T13:23:52;3.50;;;1.38;;
46757;SDS011;32509;47.750;-3.396;2022-10-17T13:26:20;3.75;;;0.80;;
46757;SDS011;32509;47.750;-3.396;2022-10-17T13:31:50;4.13;;;1.30;;
46757;SDS011;32509;47.750;-3.396;2022-10-17T13:34:17;7.97;;;1.40;;
46757;SDS011;32509;47.750;-3.396;2022-10-17T13:36:47;2.70;;;1.35;;
46757;SDS011;32509;47.750;-3.396;2022-10-17T13:39:16;6.25;;;1.67;;
46757;SDS011;32509;47.750;-3.396;2022-10-17T13:41:42;4.88;;;1.40;;
46757;SDS011;32509;47.750;-3.396;2022-10-17T13:44:19;4.63;;;1.42;;
46757;SDS011;32509;47.750;-3.396;2022-10-17T13:46:46;3.95;;;1.25;;
46757;SDS011;32509;47.750;-3.396;2022-10-17T13:51:45;6.93;;;1.93;;
46757;SDS011;32509;47.750;-3.396;2022-10-17T13:56:57;5.35;;;1.75;;
46757;SDS011;32509;47.750;-3.396;2022-10-17T13:59:24;4.47;;;1.20;;
46757;SDS011;32509;47.750;-3.396;2022-10-17T14:01:51;6.28;;;1.42;;
46757;SDS011;32509;47.750;-3.396;2022-10-17T14:04:19;6.13;;;1.50;;
46757;SDS011;32509;47.750;-3.396;2022-10-17T14:06:45;4.18;;;1.23;;
46757;SDS011;32509;47.750;-3.396;2022-10-17T14:09:22;5.45;;;1.73;;
46757;SDS011;32509;47.750;-3.396;2022-10-17T14:11:57;6.25;;;2.10;;
46757;SDS011;32509;47.750;-3.396;2022-10-17T14:14:24;3.35;;;1.35;;
46757;SDS011;32509;47.750;-3.396;2022-10-17T14:16:50;7.10;;;1.80;;
46757;SDS011;32509;47.750;-3.396;2022-10-17T14:21:51;8.35;;;2.10;;
46757;SDS011;32509;47.750;-3.396;2022-10-17T14:26:54;6.72;;;1.58;;
46757;SDS011;32509;47.750;-3.396;2022-10-17T14:29:29;4.35;;;1.75;;
46757;SDS011;32509;47.750;-3.396;2022-10-17T14:32:00;8.05;;;2.38;;
46757;SDS011;32509;47.750;-3.396;2022-10-17T14:34:34;4.35;;;1.80;;
46757;SDS011;32509;47.750;-3.396;2022-10-17T14:37:01;4.75;;;1.83;;
46757;SDS011;32509;47.750;-3.396;2022-10-17T14:39:27;5.32;;;2.35;;
46757;SDS011;32509;47.750;-3.396;2022-10-17T14:41:54;4.43;;;1.58;;
46757;SDS011;32509;47.750;-3.396;2022-10-17T14:46:53;11.38;;;2.08;;
46757;SDS011;32509;47.750;-3.396;2022-10-17T14:49:23;4.65;;;1.27;;
46757;SDS011;32509;47.750;-3.396;2022-10-17T14:54:35;4.95;;;1.75;;
46757;SDS011;32509;47.750;-3.396;2022-10-17T14:57:25;5.43;;;1.70;;
46757;SDS011;32509;47.750;-3.396;2022-10-17T14:59:49;3.10;;;1.55;;
46757;SDS011;32509;47.750;-3.396;2022-10-17T15:02:15;8.05;;;1.80;;
46757;SDS011;32509;47.750;-3.396;2022-10-17T15:04:41;4.38;;;1.48;;
46757;SDS011;32509;47.750;-3.396;2022-10-17T15:07:11;3.80;;;1.67;;
46757;SDS011;32509;47.750;-3.396;2022-10-17T15:09:37;4.97;;;1.80;;
46757;SDS011;32509;47.750;-3.396;2022-10-17T15:12:05;7.18;;;2.30;;
46757;SDS011;32509;47.750;-3.396;2022-10-17T15:14:32;5.53;;;2.25;;
46757;SDS011;32509;47.750;-3.396;2022-10-17T15:16:59;4.05;;;1.40;;
46757;SDS011;32509;47.750;-3.396;2022-10-17T15:19:25;6.57;;;1.92;;
46757;SDS011;32509;47.750;-3.396;2022-10-17T15:21:51;1.75;;;1.23;;
46757;SDS011;32509;47.750;-3.396;2022-10-17T15:24:17;4.80;;;1.50;;
46757;SDS011;32509;47.750;-3.396;2022-10-17T15:26:43;7.72;;;1.65;;
46757;SDS011;32509;47.750;-3.396;2022-10-17T15:29:12;4.93;;;1.20;;
46757;SDS011;32509;47.750;-3.396;2022-10-17T15:31:39;3.22;;;1.33;;
46757;SDS011;32509;47.750;-3.396;2022-10-17T15:34:05;5.15;;;1.38;;
46757;SDS011;32509;47.750;-3.396;2022-10-17T15:36:34;5.80;;;1.83;;
46757;SDS011;32509;47.750;-3.396;2022-10-17T15:39:01;2.88;;;1.42;;
46757;SDS011;32509;47.750;-3.396;2022-10-17T15:41:28;3.85;;;1.30;;
46757;SDS011;32509;47.750;-3.396;2022-10-17T15:43:54;3.42;;;1.27;;
46757;SDS011;32509;47.750;-3.396;2022-10-17T15:46:21;6.78;;;1.63;;
46757;SDS011;32509;47.750;-3.396;2022-10-17T15:48:49;4.65;;;1.83;;
46757;SDS011;32509;47.750;-3.396;2022-10-17T15:51:15;7.10;;;2.05;;
46757;SDS011;32509;47.750;-3.396;2022-10-17T15:53:42;3.72;;;1.17;;
46757;SDS011;32509;47.750;-3.396;2022-10-17T15:56:14;3.83;;;1.38;;
46757;SDS011;32509;47.750;-3.396;2022-10-17T15:58:43;5.13;;;1.20;;
46757;SDS011;32509;47.750;-3.396;2022-10-17T16:01:13;4.20;;;1.30;;
46757;SDS011;32509;47.750;-3.396;2022-10-17T16:03:40;3.38;;;1.88;;
46757;SDS011;32509;47.750;-3.396;2022-10-17T16:06:07;5.03;;;1.80;;
46757;SDS011;32509;47.750;-3.396;2022-10-17T16:08:33;3.88;;;1.23;;
46757;SDS011;32509;47.750;-3.396;2022-10-17T16:10:59;4.65;;;1.52;;
46757;SDS011;32509;47.750;-3.396;2022-10-17T16:13:25;4.75;;;1.38;;
46757;SDS011;32509;47.750;-3.396;2022-10-17T16:15:51;2.88;;;1.27;;
46757;SDS011;32509;47.750;-3.396;2022-10-17T16:18:17;3.55;;;1.30;;
46757;SDS011;32509;47.750;-3.396;2022-10-17T16:20:44;4.70;;;1.30;;
46757;SDS011;32509;47.750;-3.396;2022-10-17T16:23:11;4.00;;;1.30;;
46757;SDS011;32509;47.750;-3.396;2022-10-17T16:25:37;3.40;;;1.45;;
46757;SDS011;32509;47.750;-3.396;2022-10-17T16:28:04;3.05;;;1.38;;
46757;SDS011;32509;47.750;-3.396;2022-10-17T16:30:32;3.53;;;1.38;;
46757;SDS011;32509;47.750;-3.396;2022-10-17T16:33:02;6.72;;;1.60;;
46757;SDS011;32509;47.750;-3.396;2022-10-17T16:35:29;4.45;;;1.10;;
46757;SDS011;32509;47.750;-3.396;2022-10-17T16:37:55;4.93;;;1.67;;
46757;SDS011;32509;47.750;-3.396;2022-10-17T16:40:22;4.40;;;1.80;;
46757;SDS011;32509;47.750;-3.396;2022-10-17T16:42:48;10.27;;;2.40;;
46757;SDS011;32509;47.750;-3.396;2022-10-17T16:45:15;4.45;;;1.63;;
46757;SDS011;32509;47.750;-3.396;2022-10-17T16:47:42;5.40;;;1.30;;
46757;SDS011;32509;47.750;-3.396;2022-10-17T16:50:08;8.38;;;2.33;;
46757;SDS011;32509;47.750;-3.396;2022-10-17T16:52:34;4.50;;;1.50;;
46757;SDS011;32509;47.750;-3.396;2022-10-17T16:55:00;6.47;;;1.75;;
46757;SDS011;32509;47.750;-3.396;2022-10-17T16:57:26;2.40;;;1.25;;
46757;SDS011;32509;47.750;-3.396;2022-10-17T16:59:53;5.30;;;1.90;;
46757;SDS011;32509;47.750;-3.396;2022-10-17T17:02:19;3.95;;;1.83;;
46757;SDS011;32509;47.750;-3.396;2022-10-17T17:04:45;4.82;;;2.65;;
46757;SDS011;32509;47.750;-3.396;2022-10-17T17:07:11;4.07;;;1.63;;
46757;SDS011;32509;47.750;-3.396;2022-10-17T17:09:38;4.90;;;1.52;;
46757;SDS011;32509;47.750;-3.396;2022-10-17T17:12:05;2.97;;;1.35;;
46757;SDS011;32509;47.750;-3.396;2022-10-17T17:14:31;1.58;;;1.00;;
46757;SDS011;32509;47.750;-3.396;2022-10-17T17:16:57;2.42;;;0.88;;
46757;SDS011;32509;47.750;-3.396;2022-10-17T17:19:23;3.15;;;1.60;;
46757;SDS011;32509;47.750;-3.396;2022-10-17T17:21:49;3.22;;;1.13;;
46757;SDS011;32509;47.750;-3.396;2022-10-17T17:24:16;3.80;;;1.92;;
46757;SDS011;32509;47.750;-3.396;2022-10-17T17:26:42;2.92;;;1.45;;
46757;SDS011;32509;47.750;-3.396;2022-10-17T17:29:09;5.35;;;2.53;;
46757;SDS011;32509;47.750;-3.396;2022-10-17T17:31:38;2.17;;;1.65;;
46757;SDS011;32509;47.750;-3.396;2022-10-17T17:34:04;4.30;;;1.85;;
46757;SDS011;32509;47.750;-3.396;2022-10-17T17:36:31;6.40;;;1.90;;
46757;SDS011;32509;47.750;-3.396;2022-10-17T17:38:58;2.95;;;1.90;;
46757;SDS011;32509;47.750;-3.396;2022-10-17T17:41:25;3.15;;;1.60;;
46757;SDS011;32509;47.750;-3.396;2022-10-17T17:43:51;5.25;;;1.70;;
46757;SDS011;32509;47.750;-3.396;2022-10-17T17:46:18;2.97;;;1.40;;
46757;SDS011;32509;47.750;-3.396;2022-10-17T17:48:45;3.80;;;1.95;;
46757;SDS011;32509;47.750;-3.396;2022-10-17T17:51:12;4.45;;;1.98;;
46757;SDS011;32509;47.750;-3.396;2022-10-17T17:53:38;3.92;;;1.80;;
46757;SDS011;32509;47.750;-3.396;2022-10-17T17:56:06;2.30;;;1.88;;
46757;SDS011;32509;47.750;-3.396;2022-10-17T17:58:32;7.18;;;1.88;;
46757;SDS011;32509;47.750;-3.396;2022-10-17T18:00:59;4.00;;;1.60;;
46757;SDS011;32509;47.750;-3.396;2022-10-17T18:03:25;3.63;;;2.25;;
46757;SDS011;32509;47.750;-3.396;2022-10-17T18:05:52;4.45;;;2.28;;
46757;SDS011;32509;47.750;-3.396;2022-10-17T18:08:18;3.60;;;2.33;;
46757;SDS011;32509;47.750;-3.396;2022-10-17T18:10:48;5.32;;;1.98;;
46757;SDS011;32509;47.750;-3.396;2022-10-17T18:13:14;3.50;;;2.63;;
46757;SDS011;32509;47.750;-3.396;2022-10-17T18:15:41;5.18;;;2.70;;
46757;SDS011;32509;47.750;-3.396;2022-10-17T18:18:07;2.60;;;2.08;;
46757;SDS011;32509;47.750;-3.396;2022-10-17T18:20:33;3.83;;;2.63;;
46757;SDS011;32509;47.750;-3.396;2022-10-17T18:23:00;2.72;;;2.45;;
46757;SDS011;32509;47.750;-3.396;2022-10-17T18:25:26;4.25;;;3.15;;
46757;SDS011;32509;47.750;-3.396;2022-10-17T18:27:52;5.00;;;2.95;;
46757;SDS011;32509;47.750;-3.396;2022-10-17T18:30:18;4.18;;;2.95;;
46757;SDS011;32509;47.750;-3.396;2022-10-17T18:32:44;3.58;;;3.15;;
46757;SDS011;32509;47.750;-3.396;2022-10-17T18:35:10;4.88;;;3.30;;
46757;SDS011;32509;47.750;-3.396;2022-10-17T18:37:36;6.97;;;3.75;;
46757;SDS011;32509;47.750;-3.396;2022-10-17T18:40:02;5.75;;;3.00;;
46757;SDS011;32509;47.750;-3.396;2022-10-17T18:42:28;4.10;;;3.30;;
46757;SDS011;32509;47.750;-3.396;2022-10-17T18:44:54;5.28;;;3.25;;
46757;SDS011;32509;47.750;-3.396;2022-10-17T18:47:20;5.57;;;2.75;;
46757;SDS011;32509;47.750;-3.396;2022-10-17T18:49:46;3.45;;;2.67;;
46757;SDS011;32509;47.750;-3.396;2022-10-17T18:52:13;3.97;;;3.25;;
46757;SDS011;32509;47.750;-3.396;2022-10-17T18:54:39;6.70;;;4.13;;
46757;SDS011;32509;47.750;-3.396;2022-10-17T18:57:05;7.65;;;5.28;;
46757;SDS011;32509;47.750;-3.396;2022-10-17T18:59:32;9.32;;;5.75;;
46757;SDS011;32509;47.750;-3.396;2022-10-17T19:01:58;8.95;;;5.05;;
46757;SDS011;32509;47.750;-3.396;2022-10-17T19:04:24;9.02;;;5.57;;
46757;SDS011;32509;47.750;-3.396;2022-10-17T19:06:50;9.77;;;4.60;;
46757;SDS011;32509;47.750;-3.396;2022-10-17T19:09:16;9.93;;;4.68;;
46757;SDS011;32509;47.750;-3.396;2022-10-17T19:11:42;6.88;;;4.20;;
46757;SDS011;32509;47.750;-3.396;2022-10-17T19:14:09;11.25;;;5.20;;
46757;SDS011;32509;47.750;-3.396;2022-10-17T19:16:42;14.30;;;6.05;;
46757;SDS011;32509;47.750;-3.396;2022-10-17T19:21:37;13.35;;;6.72;;
46757;SDS011;32509;47.750;-3.396;2022-10-17T19:24:04;7.68;;;6.10;;
46757;SDS011;32509;47.750;-3.396;2022-10-17T19:26:31;8.52;;;5.75;;
46757;SDS011;32509;47.750;-3.396;2022-10-17T19:28:59;12.18;;;6.10;;
46757;SDS011;32509;47.750;-3.396;2022-10-17T19:31:25;14.65;;;5.00;;
46757;SDS011;32509;47.750;-3.396;2022-10-17T19:33:52;10.07;;;4.88;;
46757;SDS011;32509;47.750;-3.396;2022-10-17T19:36:19;13.48;;;5.60;;
46757;SDS011;32509;47.750;-3.396;2022-10-17T19:38:45;11.70;;;5.65;;
46757;SDS011;32509;47.750;-3.396;2022-10-17T19:41:13;11.13;;;4.93;;
46757;SDS011;32509;47.750;-3.396;2022-10-17T19:43:40;8.18;;;4.78;;
46757;SDS011;32509;47.750;-3.396;2022-10-17T19:46:07;9.50;;;5.28;;
46757;SDS011;32509;47.750;-3.396;2022-10-17T19:48:34;8.57;;;5.00;;
46757;SDS011;32509;47.750;-3.396;2022-10-17T19:51:01;11.18;;;4.88;;
46757;SDS011;32509;47.750;-3.396;2022-10-17T19:53:27;9.77;;;4.63;;
46757;SDS011;32509;47.750;-3.396;2022-10-17T19:55:54;13.50;;;4.70;;
46757;SDS011;32509;47.750;-3.396;2022-10-17T19:58:20;8.95;;;4.35;;
46757;SDS011;32509;47.750;-3.396;2022-10-17T20:00:47;6.35;;;3.92;;
46757;SDS011;32509;47.750;-3.396;2022-10-17T20:03:14;8.55;;;4.30;;
46757;SDS011;32509;47.750;-3.396;2022-10-17T20:05:40;9.32;;;4.10;;
46757;SDS011;32509;47.750;-3.396;2022-10-17T20:08:06;10.50;;;4.53;;
46757;SDS011;32509;47.750;-3.396;2022-10-17T20:10:32;6.00;;;4.00;;
46757;SDS011;32509;47.750;-3.396;2022-10-17T20:12:58;8.48;;;3.85;;
46757;SDS011;32509;47.750;-3.396;2022-10-17T20:15:25;6.93;;;3.42;;
46757;SDS011;32509;47.750;-3.396;2022-10-17T20:17:51;5.68;;;3.35;;
46757;SDS011;32509;47.750;-3.396;2022-10-17T20:20:17;5.30;;;2.97;;
46757;SDS011;32509;47.750;-3.396;2022-10-17T20:22:43;6.70;;;4.15;;
46757;SDS011;32509;47.750;-3.396;2022-10-17T20:25:09;8.90;;;3.60;;
46757;SDS011;32509;47.750;-3.396;2022-10-17T20:27:35;8.27;;;4.65;;
46757;SDS011;32509;47.750;-3.396;2022-10-17T20:30:02;5.07;;;4.43;;
46757;SDS011;32509;47.750;-3.396;2022-10-17T20:32:29;7.55;;;4.10;;
46757;SDS011;32509;47.750;-3.396;2022-10-17T20:34:55;7.35;;;5.00;;
46757;SDS011;32509;47.750;-3.396;2022-10-17T20:37:21;10.23;;;5.05;;
46757;SDS011;32509;47.750;-3.396;2022-10-17T20:39:47;7.93;;;4.50;;
46757;SDS011;32509;47.750;-3.396;2022-10-17T20:42:13;6.32;;;4.78;;
46757;SDS011;32509;47.750;-3.396;2022-10-17T20:44:39;7.18;;;5.13;;
46757;SDS011;32509;47.750;-3.396;2022-10-17T20:47:05;5.93;;;4.20;;
46757;SDS011;32509;47.750;-3.396;2022-10-17T20:49:31;4.68;;;3.88;;
46757;SDS011;32509;47.750;-3.396;2022-10-17T20:51:58;4.78;;;4.38;;
46757;SDS011;32509;47.750;-3.396;2022-10-17T20:54:24;4.95;;;4.45;;
46757;SDS011;32509;47.750;-3.396;2022-10-17T20:56:51;8.43;;;5.20;;
46757;SDS011;32509;47.750;-3.396;2022-10-17T20:59:18;5.50;;;5.03;;
46757;SDS011;32509;47.750;-3.396;2022-10-17T21:01:45;5.80;;;5.20;;
46757;SDS011;32509;47.750;-3.396;2022-10-17T21:04:11;5.72;;;5.22;;
46757;SDS011;32509;47.750;-3.396;2022-10-17T21:06:37;6.20;;;5.10;;
46757;SDS011;32509;47.750;-3.396;2022-10-17T21:09:04;5.80;;;5.18;;
46757;SDS011;32509;47.750;-3.396;2022-10-17T21:11:30;7.15;;;5.28;;
46757;SDS011;32509;47.750;-3.396;2022-10-17T21:14:00;5.60;;;5.10;;
46757;SDS011;32509;47.750;-3.396;2022-10-17T21:16:27;5.57;;;5.07;;
46757;SDS011;32509;47.750;-3.396;2022-10-17T21:18:54;5.22;;;4.82;;
46757;SDS011;32509;47.750;-3.396;2022-10-17T21:21:30;5.22;;;4.82;;
46757;SDS011;32509;47.750;-3.396;2022-10-17T21:23:58;5.20;;;4.80;;
46757;SDS011;32509;47.750;-3.396;2022-10-17T21:26:25;5.60;;;5.15;;
46757;SDS011;32509;47.750;-3.396;2022-10-17T21:28:51;6.15;;;5.65;;
46757;SDS011;32509;47.750;-3.396;2022-10-17T21:31:18;5.15;;;4.75;;
46757;SDS011;32509;47.750;-3.396;2022-10-17T21:33:45;6.32;;;5.72;;
46757;SDS011;32509;47.750;-3.396;2022-10-17T21:36:12;6.10;;;5.68;;
46757;SDS011;32509;47.750;-3.396;2022-10-17T21:38:40;5.70;;;5.22;;
46757;SDS011;32509;47.750;-3.396;2022-10-17T21:41:07;5.97;;;5.35;;
46757;SDS011;32509;47.750;-3.396;2022-10-17T21:43:34;6.43;;;5.88;;
46757;SDS011;32509;47.750;-3.396;2022-10-17T21:46:04;5.90;;;5.40;;
46757;SDS011;32509;47.750;-3.396;2022-10-17T21:48:31;5.97;;;5.22;;
46757;SDS011;32509;47.750;-3.396;2022-10-17T21:50:58;5.32;;;4.93;;
46757;SDS011;32509;47.750;-3.396;2022-10-17T21:53:24;5.35;;;4.97;;
46757;SDS011;32509;47.750;-3.396;2022-10-17T21:55:50;5.53;;;5.15;;
46757;SDS011;32509;47.750;-3.396;2022-10-17T21:58:16;5.10;;;4.70;;
46757;SDS011;32509;47.750;-3.396;2022-10-17T22:00:42;5.28;;;4.93;;
46757;SDS011;32509;47.750;-3.396;2022-10-17T22:03:08;5.50;;;5.10;;
46757;SDS011;32509;47.750;-3.396;2022-10-17T22:05:36;5.78;;;5.38;;
46757;SDS011;32509;47.750;-3.396;2022-10-17T22:08:03;6.03;;;5.53;;
46757;SDS011;32509;47.750;-3.396;2022-10-17T22:10:29;5.63;;;5.22;;
46757;SDS011;32509;47.750;-3.396;2022-10-17T22:12:55;5.30;;;5.00;;
46757;SDS011;32509;47.750;-3.396;2022-10-17T22:15:21;4.95;;;4.65;;
46757;SDS011;32509;47.750;-3.396;2022-10-17T22:17:47;4.70;;;4.40;;
46757;SDS011;32509;47.750;-3.396;2022-10-17T22:20:13;4.82;;;4.43;;
46757;SDS011;32509;47.750;-3.396;2022-10-17T22:22:39;4.97;;;4.57;;
46757;SDS011;32509;47.750;-3.396;2022-10-17T22:25:05;8.15;;;4.38;;
46757;SDS011;32509;47.750;-3.396;2022-10-17T22:27:32;5.18;;;4.75;;
46757;SDS011;32509;47.750;-3.396;2022-10-17T22:29:58;4.50;;;3.85;;
46757;SDS011;32509;47.750;-3.396;2022-10-17T22:32:24;4.53;;;4.18;;
46757;SDS011;32509;47.750;-3.396;2022-10-17T22:34:50;4.30;;;4.00;;
46757;SDS011;32509;47.750;-3.396;2022-10-17T22:37:16;4.45;;;4.15;;
46757;SDS011;32509;47.750;-3.396;2022-10-17T22:39:42;4.75;;;4.45;;
46757;SDS011;32509;47.750;-3.396;2022-10-17T22:42:08;4.43;;;4.13;;
46757;SDS011;32509;47.750;-3.396;2022-10-17T22:44:34;4.15;;;3.75;;
46757;SDS011;32509;47.750;-3.396;2022-10-17T22:47:00;4.57;;;4.18;;
46757;SDS011;32509;47.750;-3.396;2022-10-17T22:49:26;3.97;;;3.72;;
46757;SDS011;32509;47.750;-3.396;2022-10-17T22:51:52;4.20;;;3.90;;
46757;SDS011;32509;47.750;-3.396;2022-10-17T22:54:18;4.28;;;3.80;;
46757;SDS011;32509;47.750;-3.396;2022-10-17T22:56:44;5.60;;;4.35;;
46757;SDS011;32509;47.750;-3.396;2022-10-17T22:59:11;3.90;;;3.63;;
46757;SDS011;32509;47.750;-3.396;2022-10-17T23:01:37;4.38;;;4.07;;
46757;SDS011;32509;47.750;-3.396;2022-10-17T23:04:03;12.45;;;4.75;;
46757;SDS011;32509;47.750;-3.396;2022-10-17T23:06:29;6.88;;;4.75;;
46757;SDS011;32509;47.750;-3.396;2022-10-17T23:08:55;4.53;;;4.15;;
46757;SDS011;32509;47.750;-3.396;2022-10-17T23:11:21;4.30;;;4.00;;
46757;SDS011;32509;47.750;-3.396;2022-10-17T23:13:47;4.32;;;4.03;;
46757;SDS011;32509;47.750;-3.396;2022-10-17T23:16:13;4.88;;;4.57;;
46757;SDS011;32509;47.750;-3.396;2022-10-17T23:18:39;8.68;;;5.45;;
46757;SDS011;32509;47.750;-3.396;2022-10-17T23:21:05;9.45;;;4.70;;
46757;SDS011;32509;47.750;-3.396;2022-10-17T23:23:32;5.18;;;4.78;;
46757;SDS011;32509;47.750;-3.396;2022-10-17T23:26:02;5.50;;;5.07;;
46757;SDS011;32509;47.750;-3.396;2022-10-17T23:28:28;5.47;;;4.93;;
46757;SDS011;32509;47.750;-3.396;2022-10-17T23:30:55;5.63;;;5.22;;
46757;SDS011;32509;47.750;-3.396;2022-10-17T23:33:21;5.20;;;4.40;;
46757;SDS011;32509;47.750;-3.396;2022-10-17T23:35:48;5.13;;;4.72;;
46757;SDS011;32509;47.750;-3.396;2022-10-17T23:38:14;4.78;;;4.47;;
46757;SDS011;32509;47.750;-3.396;2022-10-17T23:40:40;4.53;;;4.22;;
46757;SDS011;32509;47.750;-3.396;2022-10-17T23:43:06;4.90;;;4.50;;
46757;SDS011;32509;47.750;-3.396;2022-10-17T23:45:32;4.80;;;4.45;;
46757;SDS011;32509;47.750;-3.396;2022-10-17T23:47:58;4.35;;;4.03;;
46757;SDS011;32509;47.750;-3.396;2022-10-17T23:50:24;4.50;;;4.10;;
46757;SDS011;32509;47.750;-3.396;2022-10-17T23:52:50;4.53;;;4.10;;
46757;SDS011;32509;47.750;-3.396;2022-10-17T23:55:16;4.90;;;4.50;;
46757;SDS011;32509;47.750;-3.396;2022-10-17T23:57:42;5.03;;;4.60;;
